sensor_id;sensor_type;location;lat;lon;timestamp;pressure;altitude;pressure_sealevel;temperature;humidity
15634;BME280;14654;48.898;8.308;2023-07-28T00:01:52;99504.31;;;20.18;100.00
15634;BME280;14654;48.898;8.308;2023-07-28T00:04:17;99496.53;;;20.16;100.00
15634;BME280;14654;48.898;8.308;2023-07-28T00:06:42;99498.31;;;20.16;100.00
15634;BME280;14654;48.898;8.308;2023-07-28T00:09:08;99508.91;;;20.14;100.00
15634;BME280;14654;48.898;8.308;2023-07-28T00:11:33;99492.38;;;20.12;100.00
15634;BME280;14654;48.898;8.308;2023-07-28T00:13:58;99493.34;;;20.11;100.00
15634;BME280;14654;48.898;8.308;2023-07-28T00:16:24;99496.06;;;20.09;100.00
15634;BME280;14654;48.898;8.308;2023-07-28T00:18:49;99488.28;;;20.08;100.00
15634;BME280;14654;48.898;8.308;2023-07-28T00:21:14;99485.72;;;20.06;100.00
15634;BME280;14654;48.898;8.308;2023-07-28T00:23:39;99495.47;;;20.04;100.00
15634;BME280;14654;48.898;8.308;2023-07-28T00:26:06;99483.31;;;20.03;100.00
15634;BME280;14654;48.898;8.308;2023-07-28T00:28:31;99485.09;;;20.03;100.00
15634;BME280;14654;48.898;8.308;2023-07-28T00:30:56;99479.84;;;20.03;100.00
15634;BME280;14654;48.898;8.308;2023-07-28T00:33:22;99476.38;;;20.02;100.00
15634;BME280;14654;48.898;8.308;2023-07-28T00:35:47;99472.88;;;20.02;100.00
15634;BME280;14654;48.898;8.308;2023-07-28T00:38:12;99478.25;;;20.00;100.00
15634;BME280;14654;48.898;8.308;2023-07-28T00:40:38;99481.81;;;19.99;100.00
15634;BME280;14654;48.898;8.308;2023-07-28T00:43:03;99475.69;;;19.99;100.00
15634;BME280;14654;48.898;8.308;2023-07-28T00:45:29;99468.88;;;19.96;100.00
15634;BME280;14654;48.898;8.308;2023-07-28T00:47:56;99468.97;;;19.94;100.00
15634;BME280;14654;48.898;8.308;2023-07-28T00:50:25;99471.66;;;19.93;100.00
15634;BME280;14654;48.898;8.308;2023-07-28T00:52:51;99473.47;;;19.92;100.00
15634;BME280;14654;48.898;8.308;2023-07-28T00:55:16;99481.53;;;19.89;100.00
15634;BME280;14654;48.898;8.308;2023-07-28T00:57:42;99487.81;;;19.87;100.00
15634;BME280;14654;48.898;8.308;2023-07-28T01:00:08;99486.28;;;19.83;100.00
15634;BME280;14654;48.898;8.308;2023-07-28T01:02:33;99488.31;;;19.77;100.00
15634;BME280;14654;48.898;8.308;2023-07-28T01:04:59;99482.59;;;19.71;100.00
15634;BME280;14654;48.898;8.308;2023-07-28T01:07:44;99479.50;;;19.64;100.00
15634;BME280;14654;48.898;8.308;2023-07-28T01:10:16;99486.88;;;19.57;100.00
15634;BME280;14654;48.898;8.308;2023-07-28T01:12:42;99491.56;;;19.52;100.00
15634;BME280;14654;48.898;8.308;2023-07-28T01:15:07;99489.22;;;19.47;100.00
15634;BME280;14654;48.898;8.308;2023-07-28T01:17:33;99482.47;;;19.43;100.00
15634;BME280;14654;48.898;8.308;2023-07-28T01:19:58;99480.09;;;19.39;100.00
15634;BME280;14654;48.898;8.308;2023-07-28T01:28:07;99492.66;;;19.33;100.00
15634;BME280;14654;48.898;8.308;2023-07-28T01:30:32;99490.09;;;19.32;100.00
15634;BME280;14654;48.898;8.308;2023-07-28T01:32:58;99497.03;;;19.33;100.00
15634;BME280;14654;48.898;8.308;2023-07-28T01:35:25;99492.66;;;19.33;100.00
15634;BME280;14654;48.898;8.308;2023-07-28T01:37:51;99490.09;;;19.32;100.00
15634;BME280;14654;48.898;8.308;2023-07-28T01:40:17;99490.97;;;19.32;100.00
15634;BME280;14654;48.898;8.308;2023-07-28T01:42:42;99495.34;;;19.32;100.00
15634;BME280;14654;48.898;8.308;2023-07-28T01:45:09;99491.91;;;19.31;100.00
15634;BME280;14654;48.898;8.308;2023-07-28T01:47:34;99484.09;;;19.30;100.00
15634;BME280;14654;48.898;8.308;2023-07-28T01:49:59;99478.03;;;19.29;100.00
15634;BME280;14654;48.898;8.308;2023-07-28T01:52:25;99486.72;;;19.30;100.00
15634;BME280;14654;48.898;8.308;2023-07-28T01:54:50;99486.72;;;19.30;100.00
15634;BME280;14654;48.898;8.308;2023-07-28T01:57:15;99493.88;;;19.28;100.00
15634;BME280;14654;48.898;8.308;2023-07-28T01:59:41;99494.69;;;19.28;100.00
15634;BME280;14654;48.898;8.308;2023-07-28T02:02:06;99496.50;;;19.28;100.00
15634;BME280;14654;48.898;8.308;2023-07-28T02:04:31;99500.13;;;19.25;100.00
15634;BME280;14654;48.898;8.308;2023-07-28T02:06:57;99494.97;;;19.24;100.00
15634;BME280;14654;48.898;8.308;2023-07-28T02:09:22;99490.72;;;19.21;100.00
15634;BME280;14654;48.898;8.308;2023-07-28T02:11:47;99495.13;;;19.21;100.00
15634;BME280;14654;48.898;8.308;2023-07-28T02:14:13;99489.06;;;19.20;100.00
15634;BME280;14654;48.898;8.308;2023-07-28T02:16:38;99490.00;;;19.19;100.00
15634;BME280;14654;48.898;8.308;2023-07-28T02:19:06;99487.44;;;19.17;100.00
15634;BME280;14654;48.898;8.308;2023-07-28T02:21:32;99494.53;;;19.15;100.00
15634;BME280;14654;48.898;8.308;2023-07-28T02:23:58;99497.28;;;19.14;100.00
15634;BME280;14654;48.898;8.308;2023-07-28T02:26:26;99503.44;;;19.13;100.00
15634;BME280;14654;48.898;8.308;2023-07-28T02:28:51;99495.56;;;19.13;100.00
15634;BME280;14654;48.898;8.308;2023-07-28T02:31:17;99502.63;;;19.12;100.00
15634;BME280;14654;48.898;8.308;2023-07-28T02:33:42;99509.72;;;19.10;100.00
15634;BME280;14654;48.898;8.308;2023-07-28T02:36:07;99506.34;;;19.08;100.00
15634;BME280;14654;48.898;8.308;2023-07-28T02:38:33;99503.78;;;19.07;100.00
15634;BME280;14654;48.898;8.308;2023-07-28T02:40:58;99496.88;;;19.06;100.00
15634;BME280;14654;48.898;8.308;2023-07-28T02:43:24;99506.59;;;19.03;100.00
15634;BME280;14654;48.898;8.308;2023-07-28T02:45:57;99510.16;;;19.02;100.00
15634;BME280;14654;48.898;8.308;2023-07-28T02:48:23;99523.34;;;19.01;100.00
15634;BME280;14654;48.898;8.308;2023-07-28T02:50:50;99536.44;;;19.01;100.00
15634;BME280;14654;48.898;8.308;2023-07-28T02:53:16;99540.84;;;19.00;100.00
15634;BME280;14654;48.898;8.308;2023-07-28T02:55:45;99536.44;;;19.01;100.00
15634;BME280;14654;48.898;8.308;2023-07-28T02:58:11;99543.47;;;19.00;100.00
15634;BME280;14654;48.898;8.308;2023-07-28T03:00:38;99542.63;;;19.00;100.00
15634;BME280;14654;48.898;8.308;2023-07-28T03:03:04;99547.03;;;18.99;100.00
15634;BME280;14654;48.898;8.308;2023-07-28T03:05:31;99551.41;;;18.99;100.00
15634;BME280;14654;48.898;8.308;2023-07-28T03:07:56;99545.34;;;18.98;100.00
15634;BME280;14654;48.898;8.308;2023-07-28T03:10:22;99548.78;;;18.99;100.00
15634;BME280;14654;48.898;8.308;2023-07-28T03:12:47;99547.13;;;18.98;100.00
15634;BME280;14654;48.898;8.308;2023-07-28T03:15:12;99557.63;;;18.98;100.00
15634;BME280;14654;48.898;8.308;2023-07-28T03:17:38;99553.09;;;19.00;100.00
15634;BME280;14654;48.898;8.308;2023-07-28T03:20:03;99550.59;;;18.98;100.00
15634;BME280;14654;48.898;8.308;2023-07-28T03:22:29;99546.38;;;18.96;100.00
15634;BME280;14654;48.898;8.308;2023-07-28T03:24:55;99558.63;;;18.95;100.00
15634;BME280;14654;48.898;8.308;2023-07-28T03:27:21;99549.06;;;18.94;100.00
15634;BME280;14654;48.898;8.308;2023-07-28T03:29:46;99564.78;;;18.94;100.00
15634;BME280;14654;48.898;8.308;2023-07-28T03:32:11;99564.84;;;18.93;100.00
15634;BME280;14654;48.898;8.308;2023-07-28T03:34:37;99564.78;;;18.94;100.00
15634;BME280;14654;48.898;8.308;2023-07-28T03:37:02;99557.00;;;18.93;100.00
15634;BME280;14654;48.898;8.308;2023-07-28T03:39:28;99563.91;;;18.94;100.00
15634;BME280;14654;48.898;8.308;2023-07-28T03:41:54;99570.88;;;18.95;100.00
15634;BME280;14654;48.898;8.308;2023-07-28T03:44:20;99568.28;;;18.95;100.00
15634;BME280;14654;48.898;8.308;2023-07-28T03:46:45;99562.16;;;18.94;100.00
15634;BME280;14654;48.898;8.308;2023-07-28T03:49:11;99561.38;;;18.92;100.00
15634;BME280;14654;48.898;8.308;2023-07-28T03:51:36;99543.13;;;18.91;100.00
15634;BME280;14654;48.898;8.308;2023-07-28T03:54:01;99549.19;;;18.91;100.00
15634;BME280;14654;48.898;8.308;2023-07-28T03:56:27;99539.56;;;18.92;100.00
15634;BME280;14654;48.898;8.308;2023-07-28T03:58:53;99553.50;;;18.92;100.00
15634;BME280;14654;48.898;8.308;2023-07-28T04:01:19;99541.31;;;18.91;100.00
15634;BME280;14654;48.898;8.308;2023-07-28T04:03:46;99553.50;;;18.92;100.00
15634;BME280;14654;48.898;8.308;2023-07-28T04:06:12;99558.75;;;18.92;100.00
15634;BME280;14654;48.898;8.308;2023-07-28T04:08:37;99556.13;;;18.92;100.00
15634;BME280;14654;48.898;8.308;2023-07-28T04:11:03;99561.47;;;18.91;100.00
15634;BME280;14654;48.898;8.308;2023-07-28T04:13:28;99566.88;;;18.87;100.00
15634;BME280;14654;48.898;8.308;2023-07-28T04:15:53;99564.41;;;18.84;100.00
15634;BME280;14654;48.898;8.308;2023-07-28T04:18:19;99565.44;;;18.82;100.00
15634;BME280;14654;48.898;8.308;2023-07-28T04:20:45;99569.09;;;18.79;100.00
15634;BME280;14654;48.898;8.308;2023-07-28T04:23:11;99565.59;;;18.79;100.00
15634;BME280;14654;48.898;8.308;2023-07-28T04:25:36;99568.22;;;18.79;100.00
15634;BME280;14654;48.898;8.308;2023-07-28T04:28:01;99564.78;;;18.78;100.00
15634;BME280;14654;48.898;8.308;2023-07-28T04:30:27;99565.69;;;18.77;100.00
15634;BME280;14654;48.898;8.308;2023-07-28T04:32:52;99550.91;;;18.76;100.00
15634;BME280;14654;48.898;8.308;2023-07-28T04:35:18;99564.09;;;18.74;100.00
15634;BME280;14654;48.898;8.308;2023-07-28T04:37:43;99563.25;;;18.74;100.00
15634;BME280;14654;48.898;8.308;2023-07-28T04:40:09;99567.66;;;18.73;100.00
15634;BME280;14654;48.898;8.308;2023-07-28T04:42:34;99574.75;;;18.71;100.00
15634;BME280;14654;48.898;8.308;2023-07-28T04:45:01;99577.44;;;18.70;100.00
15634;BME280;14654;48.898;8.308;2023-07-28T04:47:26;99576.69;;;18.68;100.00
15634;BME280;14654;48.898;8.308;2023-07-28T04:49:52;99582.75;;;18.68;100.00
15634;BME280;14654;48.898;8.308;2023-07-28T04:52:17;99577.69;;;18.65;100.00
15634;BME280;14654;48.898;8.308;2023-07-28T04:54:42;99576.09;;;18.63;100.00
15634;BME280;14654;48.898;8.308;2023-07-28T04:57:08;99578.78;;;18.61;100.00
15634;BME280;14654;48.898;8.308;2023-07-28T04:59:33;99582.34;;;18.60;100.00
15634;BME280;14654;48.898;8.308;2023-07-28T05:01:58;99591.88;;;18.61;100.00
15634;BME280;14654;48.898;8.308;2023-07-28T05:04:24;99606.66;;;18.62;100.00
15634;BME280;14654;48.898;8.308;2023-07-28T05:06:49;99600.59;;;18.62;100.00
15634;BME280;14654;48.898;8.308;2023-07-28T05:09:14;99601.38;;;18.64;100.00
15634;BME280;14654;48.898;8.308;2023-07-28T05:11:40;99604.03;;;18.62;100.00
15634;BME280;14654;48.898;8.308;2023-07-28T05:14:05;99596.19;;;18.62;100.00
15634;BME280;14654;48.898;8.308;2023-07-28T05:16:34;99593.66;;;18.61;100.00
15634;BME280;14654;48.898;8.308;2023-07-28T05:18:59;99604.97;;;18.61;100.00
15634;BME280;14654;48.898;8.308;2023-07-28T05:21:25;99600.50;;;18.63;100.00
15634;BME280;14654;48.898;8.308;2023-07-28T05:23:50;99608.13;;;18.68;100.00
15634;BME280;14654;48.898;8.308;2023-07-28T05:26:16;99599.50;;;18.66;100.00
15634;BME280;14654;48.898;8.308;2023-07-28T05:28:41;99605.53;;;18.68;100.00
15634;BME280;14654;48.898;8.308;2023-07-28T05:31:07;99608.28;;;18.65;100.00
15634;BME280;14654;48.898;8.308;2023-07-28T05:33:33;99604.81;;;18.64;100.00
15634;BME280;14654;48.898;8.308;2023-07-28T05:36:04;99603.88;;;18.65;100.00
15634;BME280;14654;48.898;8.308;2023-07-28T05:38:30;99613.44;;;18.66;100.00
15634;BME280;14654;48.898;8.308;2023-07-28T05:40:57;99622.84;;;18.70;100.00
15634;BME280;14654;48.898;8.308;2023-07-28T05:43:22;99616.75;;;18.70;100.00
15634;BME280;14654;48.898;8.308;2023-07-28T05:45:50;99629.78;;;18.71;100.00
15634;BME280;14654;48.898;8.308;2023-07-28T05:48:15;99628.91;;;18.71;100.00
15634;BME280;14654;48.898;8.308;2023-07-28T05:50:41;99635.94;;;18.70;100.00
15634;BME280;14654;48.898;8.308;2023-07-28T05:53:06;99636.97;;;18.68;100.00
15634;BME280;14654;48.898;8.308;2023-07-28T05:55:32;99639.75;;;18.65;100.00
15634;BME280;14654;48.898;8.308;2023-07-28T05:57:58;99641.50;;;18.64;100.00
15634;BME280;14654;48.898;8.308;2023-07-28T06:00:26;99647.59;;;18.65;100.00
15634;BME280;14654;48.898;8.308;2023-07-28T06:02:52;99656.31;;;18.65;100.00
15634;BME280;14654;48.898;8.308;2023-07-28T06:05:17;99645.75;;;18.67;100.00
15634;BME280;14654;48.898;8.308;2023-07-28T06:07:43;99645.50;;;18.71;100.00
15634;BME280;14654;48.898;8.308;2023-07-28T06:10:08;99642.63;;;18.76;100.00
15634;BME280;14654;48.898;8.308;2023-07-28T06:12:34;99649.31;;;18.82;100.00
15634;BME280;14654;48.898;8.308;2023-07-28T06:14:59;99649.06;;;18.86;100.00
15634;BME280;14654;48.898;8.308;2023-07-28T06:17:24;99640.94;;;18.91;100.00
15634;BME280;14654;48.898;8.308;2023-07-28T06:19:52;99640.75;;;18.96;100.00
15634;BME280;14654;48.898;8.308;2023-07-28T06:22:17;99649.19;;;19.01;100.00
15634;BME280;14654;48.898;8.308;2023-07-28T06:24:43;99645.50;;;19.05;100.00
15634;BME280;14654;48.898;8.308;2023-07-28T06:27:08;99649.72;;;19.08;100.00
15634;BME280;14654;48.898;8.308;2023-07-28T06:29:34;99649.72;;;19.08;100.00
15634;BME280;14654;48.898;8.308;2023-07-28T06:32:00;99650.72;;;19.05;100.00
15634;BME280;14654;48.898;8.308;2023-07-28T06:34:25;99653.50;;;19.02;100.00
15634;BME280;14654;48.898;8.308;2023-07-28T06:36:50;99649.28;;;18.99;100.00
15634;BME280;14654;48.898;8.308;2023-07-28T06:39:16;99657.06;;;19.01;100.00
15634;BME280;14654;48.898;8.308;2023-07-28T06:41:41;99665.78;;;19.01;100.00
15634;BME280;14654;48.898;8.308;2023-07-28T06:44:09;99665.84;;;19.00;100.00
15634;BME280;14654;48.898;8.308;2023-07-28T06:46:35;99666.78;;;18.99;100.00
15634;BME280;14654;48.898;8.308;2023-07-28T06:49:01;99669.41;;;18.99;100.00
15634;BME280;14654;48.898;8.308;2023-07-28T06:51:26;99674.59;;;19.00;100.00
15634;BME280;14654;48.898;8.308;2023-07-28T06:53:52;99672.78;;;19.01;100.00
15634;BME280;14654;48.898;8.308;2023-07-28T06:56:17;99683.22;;;19.02;100.00
15634;BME280;14654;48.898;8.308;2023-07-28T06:58:43;99674.66;;;18.99;100.00
15634;BME280;14654;48.898;8.308;2023-07-28T07:01:08;99678.22;;;18.98;100.00
15634;BME280;14654;48.898;8.308;2023-07-28T07:03:36;99677.38;;;18.97;100.00
15634;BME280;14654;48.898;8.308;2023-07-28T07:06:01;99684.41;;;18.97;100.00
15634;BME280;14654;48.898;8.308;2023-07-28T07:08:27;99686.09;;;18.98;100.00
15634;BME280;14654;48.898;8.308;2023-07-28T07:10:52;99687.69;;;19.00;100.00
15634;BME280;14654;48.898;8.308;2023-07-28T07:13:18;99695.47;;;19.02;100.00
15634;BME280;14654;48.898;8.308;2023-07-28T07:15:43;99698.88;;;19.04;100.00
15634;BME280;14654;48.898;8.308;2023-07-28T07:18:09;99697.09;;;19.04;100.00
15634;BME280;14654;48.898;8.308;2023-07-28T07:20:37;99697.84;;;19.07;100.00
15634;BME280;14654;48.898;8.308;2023-07-28T07:23:06;99700.56;;;19.05;100.00
15634;BME280;14654;48.898;8.308;2023-07-28T07:25:31;99701.31;;;19.07;100.00
15634;BME280;14654;48.898;8.308;2023-07-28T07:27:57;99695.81;;;19.12;100.00
15634;BME280;14654;48.898;8.308;2023-07-28T07:30:23;99695.31;;;19.21;100.00
15634;BME280;14654;48.898;8.308;2023-07-28T07:32:48;99712.16;;;19.33;100.00
15634;BME280;14654;48.898;8.308;2023-07-28T07:35:13;99704.75;;;19.41;100.00
15634;BME280;14654;48.898;8.308;2023-07-28T07:37:39;99706.06;;;19.48;100.00
15634;BME280;14654;48.898;8.308;2023-07-28T07:40:06;99710.13;;;19.54;100.00
15634;BME280;14654;48.898;8.308;2023-07-28T07:42:48;99716.91;;;19.58;100.00
15634;BME280;14654;48.898;8.308;2023-07-28T07:45:15;99711.22;;;19.66;100.00
15634;BME280;14654;48.898;8.308;2023-07-28T07:47:41;99720.56;;;19.88;100.00
15634;BME280;14654;48.898;8.308;2023-07-28T07:50:08;99709.22;;;20.18;100.00
15634;BME280;14654;48.898;8.308;2023-07-28T07:52:37;99708.72;;;20.41;100.00
15634;BME280;14654;48.898;8.308;2023-07-28T07:55:03;99714.47;;;20.63;100.00
15634;BME280;14654;48.898;8.308;2023-07-28T07:57:32;99712.53;;;20.81;100.00
15634;BME280;14654;48.898;8.308;2023-07-28T07:59:58;99716.00;;;20.96;100.00
15634;BME280;14654;48.898;8.308;2023-07-28T08:02:24;99715.59;;;21.31;100.00
15634;BME280;14654;48.898;8.308;2023-07-28T08:04:51;99723.81;;;21.54;100.00
15634;BME280;14654;48.898;8.308;2023-07-28T08:07:16;99723.41;;;21.74;100.00
15634;BME280;14654;48.898;8.308;2023-07-28T08:09:42;99723.13;;;22.19;100.00
15634;BME280;14654;48.898;8.308;2023-07-28T08:12:08;99718.31;;;22.39;100.00
15634;BME280;14654;48.898;8.308;2023-07-28T08:14:33;99733.34;;;22.64;100.00
15634;BME280;14654;48.898;8.308;2023-07-28T08:16:59;99733.13;;;22.67;100.00
15634;BME280;14654;48.898;8.308;2023-07-28T08:19:24;99728.56;;;22.69;100.00
15634;BME280;14654;48.898;8.308;2023-07-28T08:21:50;99726.69;;;22.59;100.00
15634;BME280;14654;48.898;8.308;2023-07-28T08:24:16;99735.75;;;22.55;100.00
15634;BME280;14654;48.898;8.308;2023-07-28T08:26:41;99730.50;;;22.67;100.00
15634;BME280;14654;48.898;8.308;2023-07-28T08:29:06;99734.59;;;22.84;100.00
15634;BME280;14654;48.898;8.308;2023-07-28T08:31:32;99733.19;;;23.05;100.00
15634;BME280;14654;48.898;8.308;2023-07-28T08:33:57;99740.28;;;23.04;100.00
15634;BME280;14654;48.898;8.308;2023-07-28T08:36:22;99733.72;;;23.10;100.00
15634;BME280;14654;48.898;8.308;2023-07-28T08:38:48;99731.06;;;23.23;100.00
15634;BME280;14654;48.898;8.308;2023-07-28T08:41:14;99735.06;;;23.41;100.00
15634;BME280;14654;48.898;8.308;2023-07-28T08:43:39;99737.59;;;23.43;100.00
15634;BME280;14654;48.898;8.308;2023-07-28T08:46:05;99739.34;;;23.55;100.00
15634;BME280;14654;48.898;8.308;2023-07-28T08:48:30;99728.81;;;23.80;100.00
15634;BME280;14654;48.898;8.308;2023-07-28T08:50:56;99733.22;;;23.55;100.00
15634;BME280;14654;48.898;8.308;2023-07-28T08:53:21;99734.94;;;23.67;100.00
15634;BME280;14654;48.898;8.308;2023-07-28T08:55:47;99735.59;;;23.95;100.00
15634;BME280;14654;48.898;8.308;2023-07-28T08:58:14;99734.97;;;23.92;100.00
15634;BME280;14654;48.898;8.308;2023-07-28T09:00:40;99736.91;;;23.89;100.00
15634;BME280;14654;48.898;8.308;2023-07-28T09:03:08;99741.00;;;24.29;100.00
15634;BME280;14654;48.898;8.308;2023-07-28T09:05:34;99734.00;;;24.17;100.00
15634;BME280;14654;48.898;8.308;2023-07-28T09:07:59;99743.09;;;24.84;100.00
15634;BME280;14654;48.898;8.308;2023-07-28T09:10:25;99741.50;;;25.38;100.00
15634;BME280;14654;48.898;8.308;2023-07-28T09:12:50;99737.66;;;25.42;100.00
15634;BME280;14654;48.898;8.308;2023-07-28T09:15:16;99739.00;;;25.48;100.00
15634;BME280;14654;48.898;8.308;2023-07-28T09:17:43;99737.88;;;25.39;100.00
15634;BME280;14654;48.898;8.308;2023-07-28T09:20:16;99727.19;;;25.30;100.00
15634;BME280;14654;48.898;8.308;2023-07-28T09:22:44;99732.25;;;25.33;100.00
15634;BME280;14654;48.898;8.308;2023-07-28T09:25:14;99741.25;;;25.53;100.00
15634;BME280;14654;48.898;8.308;2023-07-28T09:27:39;99733.56;;;25.50;100.00
15634;BME280;14654;48.898;8.308;2023-07-28T09:30:05;99737.03;;;25.39;100.00
15634;BME280;14654;48.898;8.308;2023-07-28T09:32:32;99729.25;;;25.03;100.00
15634;BME280;14654;48.898;8.308;2023-07-28T09:35:09;99730.31;;;24.78;100.00
15634;BME280;14654;48.898;8.308;2023-07-28T09:37:41;99718.94;;;24.42;100.00
15634;BME280;14654;48.898;8.308;2023-07-28T09:40:12;99718.69;;;24.45;100.00
15634;BME280;14654;48.898;8.308;2023-07-28T09:42:41;99718.78;;;24.79;100.00
15634;BME280;14654;48.898;8.308;2023-07-28T09:45:08;99721.31;;;25.03;100.00
15634;BME280;14654;48.898;8.308;2023-07-28T09:47:35;99727.06;;;25.20;100.00
15634;BME280;14654;48.898;8.308;2023-07-28T09:50:06;99728.16;;;25.06;100.00
15634;BME280;14654;48.898;8.308;2023-07-28T09:52:35;99724.66;;;25.39;100.00
15634;BME280;14654;48.898;8.308;2023-07-28T09:55:07;99727.25;;;25.62;100.00
15634;BME280;14654;48.898;8.308;2023-07-28T09:57:45;99727.00;;;25.65;100.00
15634;BME280;14654;48.898;8.308;2023-07-28T10:00:12;99734.88;;;25.55;100.00
15634;BME280;14654;48.898;8.308;2023-07-28T10:02:39;99730.88;;;25.61;100.00
15634;BME280;14654;48.898;8.308;2023-07-28T10:05:07;99726.00;;;25.78;100.00
15634;BME280;14654;48.898;8.308;2023-07-28T10:07:35;99730.97;;;25.71;100.00
15634;BME280;14654;48.898;8.308;2023-07-28T10:10:03;99727.78;;;25.56;99.88
15634;BME280;14654;48.898;8.308;2023-07-28T10:12:39;99733.22;;;25.43;99.66
15634;BME280;14654;48.898;8.308;2023-07-28T10:15:07;99724.06;;;25.47;99.24
15634;BME280;14654;48.898;8.308;2023-07-28T10:17:33;99735.00;;;25.54;98.88
15634;BME280;14654;48.898;8.308;2023-07-28T10:20:02;99730.03;;;25.61;99.11
15634;BME280;14654;48.898;8.308;2023-07-28T10:22:32;99734.03;;;25.44;99.71
15634;BME280;14654;48.898;8.308;2023-07-28T10:25:01;99724.75;;;25.38;99.70
15634;BME280;14654;48.898;8.308;2023-07-28T10:27:38;99729.22;;;25.49;99.46
15634;BME280;14654;48.898;8.308;2023-07-28T10:30:09;99736.06;;;25.51;99.70
15634;BME280;14654;48.898;8.308;2023-07-28T10:35:28;99734.03;;;25.55;98.22
15634;BME280;14654;48.898;8.308;2023-07-28T10:37:56;99738.19;;;25.69;97.83
15634;BME280;14654;48.898;8.308;2023-07-28T10:42:47;99739.59;;;25.84;97.93
15634;BME280;14654;48.898;8.308;2023-07-28T10:45:13;99743.94;;;25.85;97.40
15634;BME280;14654;48.898;8.308;2023-07-28T10:47:39;99737.84;;;25.95;97.27
15634;BME280;14654;48.898;8.308;2023-07-28T10:50:05;99744.78;;;25.86;97.21
15634;BME280;14654;48.898;8.308;2023-07-28T10:52:30;99741.53;;;25.82;97.91
15634;BME280;14654;48.898;8.308;2023-07-28T10:54:55;99746.19;;;25.58;97.65
15634;BME280;14654;48.898;8.308;2023-07-28T10:57:26;99744.53;;;25.45;98.26
15634;BME280;14654;48.898;8.308;2023-07-28T10:59:51;99751.47;;;25.58;98.16
15634;BME280;14654;48.898;8.308;2023-07-28T11:02:16;99744.88;;;25.40;99.64
15634;BME280;14654;48.898;8.308;2023-07-28T11:04:46;99748.47;;;25.39;99.92
15634;BME280;14654;48.898;8.308;2023-07-28T11:07:12;99756.91;;;25.45;99.11
15634;BME280;14654;48.898;8.308;2023-07-28T11:09:38;99754.25;;;25.33;99.67
15634;BME280;14654;48.898;8.308;2023-07-28T11:12:04;99760.88;;;25.39;99.19
15634;BME280;14654;48.898;8.308;2023-07-28T11:14:33;99755.38;;;25.42;98.72
15634;BME280;14654;48.898;8.308;2023-07-28T11:16:59;99757.38;;;25.38;97.96
15634;BME280;14654;48.898;8.308;2023-07-28T11:19:25;99754.13;;;25.35;98.73
15634;BME280;14654;48.898;8.308;2023-07-28T11:21:50;99760.03;;;25.27;98.55
15634;BME280;14654;48.898;8.308;2023-07-28T11:24:20;99766.06;;;25.18;99.32
15634;BME280;14654;48.898;8.308;2023-07-28T11:26:49;99768.00;;;25.04;100.00
15634;BME280;14654;48.898;8.308;2023-07-28T11:29:15;99761.47;;;24.97;100.00
15634;BME280;14654;48.898;8.308;2023-07-28T11:31:41;99774.13;;;24.93;100.00
15634;BME280;14654;48.898;8.308;2023-07-28T11:34:13;99763.03;;;24.88;100.00
15634;BME280;14654;48.898;8.308;2023-07-28T11:36:41;99776.16;;;24.90;100.00
15634;BME280;14654;48.898;8.308;2023-07-28T11:39:06;99772.31;;;24.94;100.00
15634;BME280;14654;48.898;8.308;2023-07-28T11:41:32;99772.44;;;24.92;100.00
15634;BME280;14654;48.898;8.308;2023-07-28T11:43:59;99768.00;;;24.93;100.00
15634;BME280;14654;48.898;8.308;2023-07-28T11:46:41;99755.94;;;25.00;100.00
15634;BME280;14654;48.898;8.308;2023-07-28T11:49:18;99763.53;;;24.93;100.00
15634;BME280;14654;48.898;8.308;2023-07-28T11:51:49;99755.34;;;24.96;100.00
15634;BME280;14654;48.898;8.308;2023-07-28T11:54:16;99761.47;;;24.97;100.00
15634;BME280;14654;48.898;8.308;2023-07-28T11:56:43;99754.63;;;24.94;100.00
15634;BME280;14654;48.898;8.308;2023-07-28T11:59:09;99751.38;;;24.91;100.00
15634;BME280;14654;48.898;8.308;2023-07-28T12:01:56;99753.78;;;24.83;100.00
15634;BME280;14654;48.898;8.308;2023-07-28T12:07:15;99751.03;;;24.73;100.00
15634;BME280;14654;48.898;8.308;2023-07-28T12:12:24;99756.06;;;24.76;100.00
15634;BME280;14654;48.898;8.308;2023-07-28T12:14:52;99754.50;;;24.73;100.00
15634;BME280;14654;48.898;8.308;2023-07-28T12:17:19;99760.88;;;24.71;100.00
15634;BME280;14654;48.898;8.308;2023-07-28T12:22:47;99758.78;;;24.63;100.00
15634;BME280;14654;48.898;8.308;2023-07-28T12:25:13;99761.66;;;24.60;100.00
15634;BME280;14654;48.898;8.308;2023-07-28T12:27:40;99765.84;;;24.51;100.00
15634;BME280;14654;48.898;8.308;2023-07-28T12:30:06;99767.97;;;24.34;100.00
15634;BME280;14654;48.898;8.308;2023-07-28T12:32:34;99772.53;;;24.32;100.00
15634;BME280;14654;48.898;8.308;2023-07-28T12:34:59;99778.72;;;24.20;100.00
15634;BME280;14654;48.898;8.308;2023-07-28T12:37:24;99778.78;;;24.07;100.00
15634;BME280;14654;48.898;8.308;2023-07-28T12:39:50;99776.00;;;23.97;100.00
15634;BME280;14654;48.898;8.308;2023-07-28T12:42:15;99779.59;;;23.83;100.00
15634;BME280;14654;48.898;8.308;2023-07-28T12:44:41;99786.75;;;23.70;100.00
15634;BME280;14654;48.898;8.308;2023-07-28T12:47:07;99777.81;;;23.59;100.00
15634;BME280;14654;48.898;8.308;2023-07-28T12:49:33;99785.41;;;23.51;100.00
15634;BME280;14654;48.898;8.308;2023-07-28T12:52:00;99785.53;;;23.50;100.00
15634;BME280;14654;48.898;8.308;2023-07-28T12:54:26;99783.94;;;23.47;100.00
15634;BME280;14654;48.898;8.308;2023-07-28T12:56:54;99785.97;;;23.43;100.00
15634;BME280;14654;48.898;8.308;2023-07-28T12:59:20;99788.59;;;23.43;100.00
15634;BME280;14654;48.898;8.308;2023-07-28T13:01:45;99789.03;;;23.37;100.00
15634;BME280;14654;48.898;8.308;2023-07-28T13:04:11;99785.13;;;23.30;100.00
15634;BME280;14654;48.898;8.308;2023-07-28T13:06:36;99789.16;;;23.23;100.00